Flight Track Log - Related Links

Times and Time Zones

All times are in EDT time to prevent confusion due to time zone crossing. See the CMF5HF flight status page for this flight to view local times or setup timezone preferences in your user account.

Time Position Orientation Groundspeed Altitude Reporting Facility
EDT Latitude Longitude Course Direction KTS MPH feet Rate Location/Type
Wed 09:49:32 AM 37.1928 -80.2303 84° East 145 167 7,600  Level Washington Center
Wed 09:50:32 AM 37.1967 -80.1836 84° East 175 201 8,700 1,109 Climbing Washington Center
Wed 09:51:31 AM 37.2014 -80.1186 85° East 180 207 9,800 1,261 Climbing Washington Center
Wed 09:52:31 AM 37.2056 -80.0589 85° East 180 207 11,200 1,388 Climbing Washington Center
Wed 09:53:32 AM 37.2100 -79.9992 85° East 174 200 12,600 1,438 Climbing Washington Center
Wed 09:54:32 AM 37.2267 -79.9375 71° East 174 200 14,100 1,436 Climbing Washington Center
Wed 09:55:29 AM 37.2392 -79.8833 74° East 169 194 15,400 1,261 Climbing Washington Center
Wed 09:56:31 AM 37.2536 -79.8294 71° East 164 189 16,600 1,082 Climbing Washington Center
Wed 09:57:31 AM 37.2681 -79.7728 72° East 164 189 17,600 843 Climbing Washington Center
Wed 09:58:32 AM 37.2803 -79.7239 73° East 164 189 18,300 864 Climbing Washington Center
Wed 09:59:29 AM 37.2944 -79.6725 71° East 164 189 19,300 814 Climbing Washington Center
Wed 10:00:30 AM 37.3047 -79.6181 77° East 164 189 19,900 645 Climbing Washington Center
Wed 10:01:30 AM 37.3214 -79.5589 70° East 164 189 20,600 545 Climbing Washington Center
Wed 10:02:31 AM 37.3358 -79.4994 73° East 164 189 21,000 197 Climbing Washington Center
Wed 10:03:32 AM 37.3503 -79.4375 74° East 170 196 21,000  Level Washington Center
Wed 10:04:30 AM 37.3769 -79.3842 58° Northeast 177 204 21,000  Level Washington Center
Wed 10:05:31 AM 37.4303 -79.3528 25° Northeast 189 217 21,000  Level Washington Center
Wed 10:06:32 AM 37.4875 -79.3164 27° Northeast 201 231 21,000  Level Washington Center
Wed 10:07:30 AM 37.5344 -79.2872 26° Northeast 206 237 21,000  Level Washington Center
Wed 10:08:31 AM 37.5919 -79.2506 27° Northeast 206 237 21,000  Level Washington Center
Wed 10:09:31 AM 37.6408 -79.2189 27° Northeast 206 237 21,000  Level Washington Center
Wed 10:10:32 AM 37.6939 -79.1847 27° Northeast 206 237 21,000  Level Washington Center
Wed 10:11:32 AM 37.7514 -79.1506 25° Northeast 211 243 21,000  Level Washington Center
Wed 10:12:30 AM 37.8044 -79.1164 27° Northeast 216 249 21,000  Level Washington Center
Wed 10:13:32 AM 37.8619 -79.0797 27° Northeast 221 254 21,000  Level Washington Center
Wed 10:14:32 AM 37.9236 -79.0403 27° Northeast 221 254 21,000  Level Washington Center
Wed 10:15:30 AM 37.9786 -79.0061 26° Northeast 221 254 21,000  Level Washington Center
Wed 10:16:32 AM 38.0319 -78.9714 27° Northeast 221 254 21,000  Level Washington Center
Wed 10:17:30 AM 38.0850 -78.9369 27° Northeast 221 254 21,000  Level Washington Center
Wed 10:18:31 AM 38.1422 -78.9000 27° Northeast 221 254 21,000  Level Washington Center
Wed 10:19:32 AM 38.1911 -78.8678 27° Northeast 221 254 21,000  Level Washington Center
Wed 10:20:30 AM 38.2442 -78.8331 27° Northeast 221 254 21,000  Level Washington Center
Wed 10:21:30 AM 38.3036 -78.7906 29° Northeast 216 249 21,000  Level Washington Center
Wed 10:22:31 AM 38.3589 -78.7558 26° Northeast 216 249 21,000  Level Washington Center
Wed 10:23:31 AM 38.4119 -78.7183 29° Northeast 216 249 21,000  Level Washington Center
Wed 10:24:32 AM 38.4692 -78.6836 25° Northeast 221 254 21,000  Level Washington Center
Wed 10:25:31 AM 38.5264 -78.6464 27° Northeast 221 254 21,000  Level Washington Center
Wed 10:26:31 AM 38.5817 -78.6089 28° Northeast 221 254 21,000  Level Washington Center
Wed 10:27:32 AM 38.6367 -78.5711 28° Northeast 221 254 21,000  Level Washington Center
Wed 10:28:32 AM 38.6939 -78.5336 27° Northeast 221 254 21,000  Level Washington Center
Wed 10:29:30 AM 38.7514 -78.4931 29° Northeast 221 254 21,000  Level Washington Center
Wed 10:30:31 AM 38.8064 -78.4581 26° Northeast 221 254 21,000  Level Washington Center
Wed 10:31:31 AM 38.8636 -78.4178 29° Northeast 221 254 21,000  Level Washington Center
Wed 10:32:32 AM 38.9228 -78.3800 26° Northeast 221 254 21,000  Level Washington Center
Wed 10:33:32 AM 38.9800 -78.3447 26° Northeast 221 254 21,000  Level Washington Center
Wed 10:34:30 AM 39.0372 -78.3042 29° Northeast 221 254 21,000  Level Washington Center
Wed 10:35:31 AM 39.0964 -78.2661 27° Northeast 221 254 21,000  Level Washington Center
Wed 10:36:32 AM 39.1472 -78.2278 30° Northeast 221 254 21,000 50 Level Washington Center
Wed 10:37:30 AM 39.1900 -78.1706 46° Northeast 221 254 21,100 51 Climbing Washington Center
Wed 10:38:30 AM 39.2208 -78.0992 61° Northeast 220 253 21,100 -50 Level Washington Center
Wed 10:39:31 AM 39.2556 -78.0281 58° Northeast 220 253 21,000  Descending Washington Center
Wed 10:40:30 AM 39.2925 -77.9594 55° Northeast 230 265 21,100  Climbing Washington Center
Wed 10:41:30 AM 39.3269 -77.8908 57° Northeast 230 265 21,000 -50 Descending Washington Center
Wed 10:42:31 AM 39.3639 -77.8197 56° Northeast 230 265 21,000  Level Washington Center
Wed 10:43:30 AM 39.3986 -77.7481 58° Northeast 230 265 21,000 -500 Level Washington Center
Wed 10:44:31 AM 39.4372 -77.6742 56° Northeast 235 270 20,000 -678 Descending Washington Center
Wed 10:46:27 AM 39.5181 -77.5183 56° Northeast 258 297 19,000 -341 Descending New York Center
Wed 10:47:27 AM 39.5392 -77.4397 71° East 243 280 19,000 50 Level New York Center
Wed 10:48:27 AM 39.5603 -77.3636 70° East 229 264 19,100  Climbing New York Center
Wed 10:49:27 AM 39.5811 -77.2847 71° East 223 257 19,000 -50 Descending New York Center
Wed 10:50:27 AM 39.6022 -77.2083 70° East 223 257 19,000  Level New York Center
Wed 10:51:27 AM 39.6225 -77.1400 69° East 223 257 19,000 -350 Level New York Center
Wed 10:52:27 AM 39.6461 -77.0506 71° East 229 264 18,300 -600 Descending New York Center
Wed 10:53:27 AM 39.6689 -76.9744 69° East 241 277 17,800 -750 Descending New York Center
Wed 10:54:27 AM 39.6944 -76.8822 70° East 241 277 16,800 -900 Descending New York Center
Wed 10:55:27 AM 39.7175 -76.8031 69° East 241 277 16,000 -900 Descending New York Center
Wed 10:56:27 AM 39.7450 -76.7083 69° East 241 277 15,000 -950 Descending New York Center
Wed 10:57:27 AM 39.7653 -76.6369 70° East 241 277 14,100 -950 Descending New York Center
Wed 10:58:27 AM 39.7906 -76.5472 70° East 241 277 13,100 -950 Descending New York Center
Wed 10:59:27 AM 39.8108 -76.4758 70° East 241 277 12,200 -500 Descending New York Center
Wed 11:00:27 AM 39.8358 -76.3861 70° East 241 277 12,100 -700 Descending New York Center
Wed 11:02:27 AM 39.8808 -76.2272 70° East 236 272 10,100 -967 Descending New York Center
Wed 11:03:27 AM 39.8989 -76.1531 72° East 236 272 9,200 -800 Descending New York Center
Wed 11:04:27 AM 39.9217 -76.0681 71° East 236 272 8,500 -800 Descending New York Center
Wed 11:05:27 AM 39.9417 -75.9911 71° East 231 266 7,600 -950 Descending New York Center
Wed 11:06:27 AM 39.9639 -75.9114 70° East 226 260 6,600 -1,000 Descending New York Center
Wed 11:07:27 AM 39.9775 -75.8392 76° East 220 253 5,600 -950 Descending New York Center
Wed 11:08:27 AM 39.9908 -75.7697 76° East 220 253 4,700 -800 Descending New York Center
Wed 11:09:27 AM 40.0111 -75.6872 72° East 220 253 4,000 -500 Descending New York Center
Wed 11:10:27 AM 40.0242 -75.6231 75° East 207 238 3,700 -600 Descending New York Center
Wed 11:11:27 AM 40.0397 -75.5483 75° East 201 231 2,800 -750 Descending New York Center
Wed 11:12:27 AM 40.0544 -75.4894 72° East 201 231 2,200 -300 Descending New York Center
Wed 11:13:27 AM 40.0675 -75.4253 75° East 177 204 2,200  Level New York Center
Wed 11:14:27 AM 40.0803 -75.3692 73° East 177 204 2,200 1,400 Level New York Center
Wed 11:15:27 AM 40.0928 -75.3103 74° East 177 204 5,000 2,800 Climbing New York Center

Login

Don't have an account? Register now (free) for customized features, flight alerts, and more!